Terminal Aerodrome Forecast
Issued by NWS

Current Version | Previous Version | Text Only | Print | Product List | Glossary Off
Versions: 1 2 3 4 5 6 7 8 9 10 11 12 13 14

000
FTUS41 KPBZ 211720
TAFHLG
TAF
KHLG 211720Z 2118/2218 28010G15KT P6SM SCT035
     FM212300 27007KT P6SM SKC
     FM220800 28004KT 5SM BR BKN010
     FM221300 27003KT P6SM OVC015
     FM221500 27004KT P6SM SCT050=

USA.gov is the U.S. government's official web portal to all federal, state and local government web resources and services.